Terminal Aerodrome Forecast
Issued by NWS Detroit/Pontiac, MI

Home | Current Version | Previous Version | Text Only | Print | Product List | Glossary On
Versions: 1 2 3 4 5 6 7 8 9 10 11 12 13 14 15 16 17 18 19
670
FTUS43 KDTX 310801 AAA
TAFFNT
TAF AMD
KFNT 310801Z 3108/0106 27005KT P6SM BKN040 BKN080
     FM310900 33006KT 4SM BR SCT008 OVC035
      TEMPO 3109/3111 OVC008
     FM311100 33004KT P6SM BKN018 BKN040
     FM311600 35009KT P6SM BKN035
     FM312000 36008KT P6SM FEW045=

USA.gov is the U.S. government's official web portal to all federal, state and local government web resources and services.